This is the latest recevied weather packets stored in our database for station/object K7TUS-6. If no packets are shown the sender has not sent any weather packets the latest 1 day(s).
| Time | Temp. | Humidity | Pressure | Rain* | Wind** | Luminosity | Snow |
|---|---|---|---|---|---|---|---|
| 1778026807 | 6.67° C | 34% | 977.2 hPa | - | 0.89 m/s, 209° | - | - |
| 1778026507 | 6.11° C | 29% | 976.2 hPa | - | 2.68 m/s, 166° | - | - |
| 1778026206 | 6.11° C | 27% | 976.1 hPa | - | 4.02 m/s, 188° | - | - |
| 1778025906 | 6.67° C | 26% | 975.9 hPa | - | 4.02 m/s, 180° | - | - |
| 1778025605 | 7.78° C | 29% | 976.8 hPa | - | 1.34 m/s, 117° | - | - |
| 1778025305 | 7.78° C | 31% | 976.3 hPa | - | 1.79 m/s, 174° | - | - |
| 1778025004 | 6.67° C | 31% | 975.4 hPa | - | 2.68 m/s, 176° | - | - |
| 1778024704 | 6.67° C | 33% | 976 hPa | - | 3.13 m/s, 174° | - | - |
| 1778024103 | 6.11° C | 32% | 978.1 hPa | - | 5.36 m/s, 179° | - | - |
| 1778023808 | 6.67° C | 39% | 977.1 hPa | - | 0.89 m/s, 200° | - | - |
| 1778023508 | 5.56° C | 33% | 975.8 hPa | - | 5.81 m/s, 177° | - | - |
| 1778023207 | 6.67° C | 32% | 977.2 hPa | - | 3.13 m/s, 180° | - | - |
| 1778022919 | 6.67° C | 34% | 977.4 hPa | - | 3.58 m/s, 114° | - | - |
| 1778022606 | 6.67° C | 30% | 976.8 hPa | - | 5.81 m/s, 152° | - | - |
| 1778022306 | 7.22° C | 34% | 977.4 hPa | - | 2.24 m/s, 138° | - | - |
| 1778022005 | 6.67° C | 36% | 977.7 hPa | - | 2.24 m/s, 93° | - | - |
| 1778021704 | 7.22° C | 32% | 977 hPa | - | 0.89 m/s, 278° | - | - |
| 1778021404 | 7.22° C | 32% | 977 hPa | - | 0.89 m/s, 278° | - | - |
| 1778021103 | 7.22° C | 34% | 977.3 hPa | - | 3.58 m/s, 172° | - | - |
| 1778020809 | 7.22° C | 32% | 977.4 hPa | - | 3.58 m/s, 164° | - | - |
| 1778020508 | 7.78° C | 29% | 977 hPa | - | 2.68 m/s, 102° | - | - |
| 1778020216 | 7.78° C | 35% | 976.9 hPa | - | 1.34 m/s, 93° | - | - |
| 1778019907 | 7.22° C | 32% | 976.5 hPa | - | 0.89 m/s, 75° | - | - |
| 1778019606 | 7.22° C | 32% | 976.6 hPa | - | 1.79 m/s, 29° | - | - |
| 1778019306 | 7.22° C | 32% | 976.6 hPa | - | 1.79 m/s, 29° | - | - |
* Rain since midnight (hover to see other rain measurements)
** Current wind speed in m/s (hover to see current wind gust speed)